createdAt,value
2022-09-27T00:03:31.511Z,13.41
2022-09-27T00:08:34.520Z,13.56
2022-09-27T00:13:36.177Z,13.45
2022-09-27T00:18:37.627Z,13.46
2022-09-27T00:23:40.025Z,13.44
2022-09-27T00:28:41.868Z,13.48
2022-09-27T00:33:43.481Z,13.44
2022-09-27T00:38:45.033Z,13.39
2022-09-27T00:43:51.151Z,13.36
2022-09-27T00:49:03.223Z,13.41
2022-09-27T00:54:06.976Z,13.28
2022-09-27T00:59:20.527Z,13.30
2022-09-27T01:04:26.580Z,13.30
2022-09-27T01:09:28.579Z,13.39
2022-09-27T01:14:35.823Z,13.49
2022-09-27T01:20:01.773Z,13.40
2022-09-27T01:25:27.563Z,13.11
2022-09-27T01:30:42.504Z,13.16
2022-09-27T01:35:50.455Z,13.27
2022-09-27T01:41:02.243Z,13.27
2022-09-27T01:46:11.551Z,12.86
2022-09-27T01:51:21.286Z,13.09
2022-09-27T01:56:49.258Z,12.88
2022-09-27T02:01:52.499Z,12.77
2022-09-27T02:06:59.441Z,13.08
2022-09-27T02:12:06.669Z,13.14
2022-09-27T02:17:41.970Z,13.00
2022-09-27T02:23:14.943Z,12.89
2022-09-27T02:28:31.242Z,12.88
2022-09-27T02:33:55.673Z,13.14
2022-09-27T02:38:57.306Z,12.97
2022-09-27T02:44:11.227Z,13.06
2022-09-27T02:49:40.311Z,13.06
2022-09-27T02:54:57.370Z,12.88
2022-09-27T03:00:30.706Z,12.87
2022-09-27T03:05:38.989Z,12.90
2022-09-27T03:10:40.613Z,12.88
2022-09-27T03:15:42.085Z,12.69
2022-09-27T03:20:43.515Z,12.79
2022-09-27T03:25:44.981Z,12.52
2022-09-27T03:30:47.125Z,12.67
2022-09-27T03:35:48.615Z,12.80
2022-09-27T03:40:50.190Z,12.63
2022-09-27T03:45:51.860Z,12.49
2022-09-27T03:50:53.397Z,12.51
2022-09-27T03:55:54.932Z,12.28
2022-09-27T04:00:56.609Z,12.57
2022-09-27T04:05:58.102Z,12.67
2022-09-27T04:10:59.845Z,12.63
2022-09-27T04:16:01.617Z,12.63
2022-09-27T04:21:03.405Z,12.54
2022-09-27T04:26:05.113Z,12.33
2022-09-27T04:31:06.896Z,12.36
2022-09-27T04:36:15.541Z,12.41
2022-09-27T04:41:17.025Z,12.29
2022-09-27T04:46:19.208Z,12.21
2022-09-27T04:51:20.874Z,12.25
2022-09-27T04:56:22.361Z,12.29
2022-09-27T05:01:23.899Z,12.33
2022-09-27T05:06:25.459Z,12.39
2022-09-27T05:11:26.941Z,12.36
2022-09-27T05:16:30.827Z,12.36
2022-09-27T05:21:35.925Z,12.56
2022-09-27T05:26:57.634Z,12.41
2022-09-27T05:31:59.155Z,12.22
2022-09-27T05:37:00.662Z,12.51
2022-09-27T05:42:02.310Z,12.31
2022-09-27T05:47:03.799Z,12.53
2022-09-27T05:52:05.379Z,12.16
2022-09-27T05:57:06.915Z,12.31
2022-09-27T06:02:11.703Z,12.51
2022-09-27T06:07:13.351Z,12.49
2022-09-27T06:12:14.886Z,12.42
2022-09-27T06:17:16.411Z,12.47
2022-09-27T06:22:18.045Z,12.03
2022-09-27T06:27:19.545Z,11.89
2022-09-27T06:32:21.022Z,11.97
2022-09-27T06:37:26.073Z,11.71
2022-09-27T06:42:27.635Z,12.16
2022-09-27T06:47:29.228Z,12.15
2022-09-27T06:52:30.842Z,11.93
2022-09-27T06:57:32.312Z,12.01
2022-09-27T07:02:33.726Z,12.15
2022-09-27T07:07:35.327Z,12.67
2022-09-27T07:12:37.562Z,13.14
2022-09-27T07:17:39.091Z,13.00
2022-09-27T07:22:42.247Z,12.76
2022-09-27T07:27:43.877Z,13.71
2022-09-27T07:32:45.973Z,13.70
2022-09-27T07:37:47.407Z,13.84
2022-09-27T07:42:55.139Z,13.28
2022-09-27T07:47:56.819Z,13.45
2022-09-27T07:52:58.400Z,13.70
2022-09-27T07:58:08.237Z,13.89
2022-09-27T08:03:17.687Z,14.19
2022-09-27T08:08:19.162Z,13.80
2022-09-27T08:13:20.778Z,14.19
2022-09-27T08:18:22.360Z,14.69
2022-09-27T08:23:23.830Z,14.70
2022-09-27T08:28:26.842Z,14.41
2022-09-27T08:33:32.295Z,14.49
2022-09-27T08:38:34.994Z,14.33
2022-09-27T08:43:50.580Z,13.72
2022-09-27T08:48:59.183Z,13.89
2022-09-27T08:54:11.716Z,14.22
2022-09-27T08:59:18.936Z,14.02
2022-09-27T09:04:41.635Z,14.35
2022-09-27T09:09:49.300Z,15.00
2022-09-27T09:15:23.561Z,15.04
2022-09-27T09:20:27.790Z,14.89
2022-09-27T09:25:54.057Z,15.12
2022-09-27T09:30:58.165Z,14.90
2022-09-27T09:36:06.615Z,14.70
2022-09-27T09:41:41.387Z,14.84
2022-09-27T09:46:48.567Z,14.97
2022-09-27T09:51:59.628Z,14.83
2022-09-27T09:57:29.975Z,14.86
2022-09-27T10:02:35.161Z,14.61
2022-09-27T10:07:39.312Z,14.34
2022-09-27T10:12:40.906Z,14.41
2022-09-27T10:17:47.070Z,14.11
2022-09-27T10:22:53.535Z,14.16
2022-09-27T10:27:56.095Z,14.31
2022-09-27T10:33:18.188Z,14.60
2022-09-27T10:38:21.472Z,14.52
2022-09-27T10:43:29.904Z,14.25
2022-09-27T10:48:31.606Z,14.51
2022-09-27T10:53:36.603Z,14.33
2022-09-27T10:58:38.858Z,14.68
2022-09-27T11:03:49.390Z,14.61
2022-09-27T11:08:52.816Z,14.42
2022-09-27T11:14:04.495Z,14.16
2022-09-27T11:19:34.263Z,14.30
2022-09-27T11:24:47.609Z,14.28
2022-09-27T11:30:04.058Z,14.50
2022-09-27T11:35:33.326Z,14.59
2022-09-27T11:41:00.881Z,14.51
2022-09-27T11:46:29.218Z,14.56
2022-09-27T11:51:38.531Z,14.36
2022-09-27T11:57:24.732Z,14.66
2022-09-27T12:02:41.486Z,14.09
2022-09-27T12:08:14.040Z,14.25
2022-09-27T12:13:19.955Z,14.33
2022-09-27T12:18:29.193Z,14.20
2022-09-27T12:23:40.391Z,14.45
2022-09-27T12:28:57.269Z,14.53
2022-09-27T12:34:14.117Z,14.53
2022-09-27T12:39:25.624Z,14.64
2022-09-27T12:44:28.273Z,14.51
2022-09-27T12:49:45.562Z,14.68
2022-09-27T12:55:08.588Z,14.70
2022-09-27T13:00:18.603Z,14.49
2022-09-27T13:05:41.498Z,14.50
2022-09-27T13:11:06.034Z,14.42
2022-09-27T13:16:08.445Z,14.28
2022-09-27T13:21:10.045Z,14.62
2022-09-27T13:26:23.350Z,14.63
2022-09-27T13:31:55.567Z,14.59
2022-09-27T13:36:57.134Z,14.76
2022-09-27T13:42:09.623Z,14.79
2022-09-27T13:47:29.124Z,14.53
2022-09-27T13:52:37.278Z,14.81
2022-09-27T13:57:51.408Z,14.59
2022-09-27T14:03:12.164Z,14.51
2022-09-27T14:08:38.573Z,14.79
2022-09-27T14:13:42.839Z,14.74
2022-09-27T14:18:51.561Z,14.93
2022-09-27T14:23:53.051Z,15.03
2022-09-27T14:28:54.591Z,14.70
2022-09-27T14:34:15.103Z,14.22
2022-09-27T14:39:23.950Z,13.99
2022-09-27T14:44:28.383Z,13.75
2022-09-27T14:49:30.319Z,13.98
2022-09-27T14:54:31.744Z,13.69
2022-09-27T14:59:36.046Z,13.66
2022-09-27T15:04:37.803Z,13.98
2022-09-27T15:09:40.635Z,13.92
2022-09-27T15:14:42.393Z,13.86
2022-09-27T15:20:18.807Z,13.93
2022-09-27T15:25:29.382Z,13.97
2022-09-27T15:30:42.651Z,14.12
2022-09-27T15:35:50.173Z,14.09
2022-09-27T15:40:51.731Z,14.09
2022-09-27T15:45:53.329Z,13.80
2022-09-27T15:50:54.744Z,13.66
2022-09-27T15:55:56.195Z,13.57
2022-09-27T16:01:00.124Z,13.83
2022-09-27T16:06:04.194Z,13.95
2022-09-27T16:11:05.665Z,13.78
2022-09-27T16:16:12.963Z,13.55
2022-09-27T16:21:14.902Z,13.60
2022-09-27T16:26:16.404Z,13.54
2022-09-27T16:31:18.354Z,13.38
2022-09-27T16:36:19.856Z,13.21
2022-09-27T16:41:22.364Z,13.30
2022-09-27T16:46:23.952Z,13.32
2022-09-27T16:51:25.481Z,13.09
2022-09-27T16:56:27.068Z,13.22
2022-09-27T17:01:28.661Z,13.17
2022-09-27T17:06:30.255Z,13.24
2022-09-27T17:11:32.434Z,13.30
2022-09-27T17:16:34.057Z,13.20
2022-09-27T17:21:38.483Z,13.05
2022-09-27T17:26:40.314Z,13.09
2022-09-27T17:31:42.301Z,12.99
2022-09-27T17:36:45.309Z,12.79
2022-09-27T17:41:48.735Z,12.73
2022-09-27T17:46:50.311Z,12.69
2022-09-27T17:51:53.428Z,12.49
2022-09-27T17:56:55.002Z,12.40
2022-09-27T18:01:56.564Z,12.43
2022-09-27T18:06:58.065Z,12.56
2022-09-27T18:11:59.999Z,12.22
2022-09-27T18:17:01.458Z,12.22
2022-09-27T18:22:02.935Z,12.13
2022-09-27T18:27:04.502Z,12.41
2022-09-27T18:32:05.959Z,12.16
2022-09-27T18:37:07.599Z,12.05
2022-09-27T18:42:09.138Z,12.05
2022-09-27T18:47:10.631Z,12.36
2022-09-27T18:52:12.149Z,12.19
2022-09-27T18:57:13.638Z,12.01
2022-09-27T19:02:15.107Z,12.30
2022-09-27T19:07:16.546Z,12.35
2022-09-27T19:12:18.014Z,12.29
2022-09-27T19:17:19.528Z,12.14
2022-09-27T19:22:21.017Z,12.16
2022-09-27T19:27:22.429Z,12.22
2022-09-27T19:32:23.927Z,11.82
2022-09-27T19:37:25.442Z,11.86
2022-09-27T19:42:26.946Z,11.92
2022-09-27T19:47:28.357Z,11.35
2022-09-27T19:52:29.803Z,11.74
2022-09-27T19:57:31.509Z,11.59
2022-09-27T20:02:33.044Z,11.18
2022-09-27T20:07:34.618Z,11.55
2022-09-27T20:12:36.030Z,11.71
2022-09-27T20:17:37.438Z,11.85
2022-09-27T20:22:38.835Z,11.98
2022-09-27T20:27:40.238Z,11.70
2022-09-27T20:32:41.694Z,11.70
2022-09-27T20:37:43.168Z,11.89
2022-09-27T20:42:44.656Z,11.74
2022-09-27T20:47:46.198Z,11.63
2022-09-27T20:52:47.729Z,11.49
2022-09-27T20:57:57.518Z,11.42
2022-09-27T21:02:59.421Z,11.28
2022-09-27T21:08:01.245Z,11.07
2022-09-27T21:13:02.641Z,11.26
2022-09-27T21:18:04.175Z,11.04
2022-09-27T21:23:05.749Z,11.18
2022-09-27T21:28:07.234Z,11.04
2022-09-27T21:33:08.738Z,11.06
2022-09-27T21:38:10.202Z,11.27
2022-09-27T21:43:11.686Z,10.65
2022-09-27T21:48:13.062Z,11.13
2022-09-27T21:53:14.510Z,11.33
2022-09-27T21:58:15.970Z,11.19
2022-09-27T22:03:17.442Z,11.32
2022-09-27T22:08:19.271Z,11.38
2022-09-27T22:13:20.886Z,11.73
2022-09-27T22:18:22.555Z,11.78
2022-09-27T22:23:23.975Z,11.78
2022-09-27T22:28:26.094Z,11.68
2022-09-27T22:33:27.583Z,11.91
2022-09-27T22:38:30.593Z,11.87
2022-09-27T22:43:32.516Z,11.86
2022-09-27T22:48:34.042Z,11.83
2022-09-27T22:53:36.147Z,11.54
2022-09-27T22:58:37.890Z,11.90
2022-09-27T23:03:39.404Z,11.80
2022-09-27T23:08:41.777Z,11.75
2022-09-27T23:13:44.377Z,11.82
2022-09-27T23:18:46.222Z,11.53
2022-09-27T23:23:47.673Z,11.79
2022-09-27T23:28:52.008Z,11.76
2022-09-27T23:33:53.786Z,11.91
2022-09-27T23:38:58.856Z,11.91
2022-09-27T23:44:00.423Z,11.89
2022-09-27T23:49:01.917Z,11.87
2022-09-27T23:54:03.538Z,11.89
2022-09-27T23:59:05.166Z,11.37
